sensor_id;sensor_type;location;lat;lon;timestamp;pressure;altitude;pressure_sealevel;temperature;humidity
44988;BME280;35735;52.226;21.254;2023-05-11T00:01:35;100870.16;;;9.28;67.83
44988;BME280;35735;52.226;21.254;2023-05-11T00:06:35;100866.53;;;9.24;68.78
44988;BME280;35735;52.226;21.254;2023-05-11T00:11:36;100860.13;;;9.16;68.35
44988;BME280;35735;52.226;21.254;2023-05-11T00:16:37;100866.41;;;9.17;68.75
44988;BME280;35735;52.226;21.254;2023-05-11T00:21:37;100866.34;;;9.11;69.42
44988;BME280;35735;52.226;21.254;2023-05-11T00:26:38;100865.38;;;9.04;69.29
44988;BME280;35735;52.226;21.254;2023-05-11T00:31:38;100857.22;;;8.99;69.02
44988;BME280;35735;52.226;21.254;2023-05-11T00:36:39;100859.81;;;8.93;69.67
44988;BME280;35735;52.226;21.254;2023-05-11T00:41:40;100861.63;;;8.93;70.72
44988;BME280;35735;52.226;21.254;2023-05-11T00:46:41;100858.75;;;8.82;71.04
44988;BME280;35735;52.226;21.254;2023-05-11T00:51:42;100858.75;;;8.79;70.82
44988;BME280;35735;52.226;21.254;2023-05-11T00:56:43;100847.00;;;8.75;70.97
44988;BME280;35735;52.226;21.254;2023-05-11T01:01:44;100846.97;;;8.70;72.01
44988;BME280;35735;52.226;21.254;2023-05-11T01:18:29;100846.19;;;8.23;73.93
44988;BME280;35735;52.226;21.254;2023-05-11T01:23:58;100848.44;;;7.98;75.59
44988;BME280;35735;52.226;21.254;2023-05-11T01:34:40;100850.31;;;7.52;77.53
44988;BME280;35735;52.226;21.254;2023-05-11T01:39:54;100843.72;;;7.36;78.41
44988;BME280;35735;52.226;21.254;2023-05-11T01:44:58;100842.38;;;7.12;79.38
44988;BME280;35735;52.226;21.254;2023-05-11T01:50:01;100842.00;;;6.95;80.28
44988;BME280;35735;52.226;21.254;2023-05-11T01:55:04;100837.28;;;6.83;80.86
44988;BME280;35735;52.226;21.254;2023-05-11T02:00:06;100842.28;;;6.68;81.29
44988;BME280;35735;52.226;21.254;2023-05-11T02:05:08;100845.62;;;6.58;81.91
44988;BME280;35735;52.226;21.254;2023-05-11T02:10:10;100837.25;;;6.42;82.62
44988;BME280;35735;52.226;21.254;2023-05-11T02:15:12;100846.72;;;6.28;83.22
44988;BME280;35735;52.226;21.254;2023-05-11T02:20:15;100844.69;;;6.18;83.72
44988;BME280;35735;52.226;21.254;2023-05-11T02:25:17;100851.63;;;6.09;84.42
44988;BME280;35735;52.226;21.254;2023-05-11T02:30:17;100849.59;;;5.99;84.90
44988;BME280;35735;52.226;21.254;2023-05-11T02:35:23;100848.41;;;5.89;85.21
44988;BME280;35735;52.226;21.254;2023-05-11T02:40:29;100852.75;;;5.84;85.51
44988;BME280;35735;52.226;21.254;2023-05-11T02:45:34;100856.19;;;5.79;85.81
44988;BME280;35735;52.226;21.254;2023-05-11T02:50:38;100859.69;;;5.76;86.05
44988;BME280;35735;52.226;21.254;2023-05-11T02:55:40;100856.91;;;5.71;86.34
44988;BME280;35735;52.226;21.254;2023-05-11T03:00:41;100853.16;;;5.66;86.57
44988;BME280;35735;52.226;21.254;2023-05-11T03:05:42;100853.97;;;5.62;87.12
44988;BME280;35735;52.226;21.254;2023-05-11T03:10:43;100854.72;;;5.56;87.31
44988;BME280;35735;52.226;21.254;2023-05-11T03:15:43;100863.56;;;5.54;87.79
44988;BME280;35735;52.226;21.254;2023-05-11T03:20:44;100861.63;;;5.48;88.17
44988;BME280;35735;52.226;21.254;2023-05-11T03:25:46;100860.78;;;5.51;88.10
44988;BME280;35735;52.226;21.254;2023-05-11T03:30:48;100863.72;;;5.60;88.11
44988;BME280;35735;52.226;21.254;2023-05-11T03:35:50;100858.88;;;5.79;87.87
44988;BME280;35735;52.226;21.254;2023-05-11T03:40:53;100860.13;;;5.93;87.99
44988;BME280;35735;52.226;21.254;2023-05-11T03:45:56;100875.09;;;6.18;88.01
44988;BME280;35735;52.226;21.254;2023-05-11T03:50:57;100868.69;;;6.49;87.85
44988;BME280;35735;52.226;21.254;2023-05-11T03:55:58;100869.75;;;6.96;85.54
44988;BME280;35735;52.226;21.254;2023-05-11T04:00:59;100874.44;;;7.49;83.78
44988;BME280;35735;52.226;21.254;2023-05-11T04:05:59;100878.97;;;8.02;82.17
44988;BME280;35735;52.226;21.254;2023-05-11T04:11:00;100872.47;;;8.41;80.15
44988;BME280;35735;52.226;21.254;2023-05-11T04:16:00;100877.59;;;8.79;79.01
44988;BME280;35735;52.226;21.254;2023-05-11T04:21:01;100871.81;;;9.17;77.24
44988;BME280;35735;52.226;21.254;2023-05-11T04:26:02;100882.06;;;9.49;76.07
44988;BME280;35735;52.226;21.254;2023-05-11T04:31:02;100884.25;;;9.83;74.70
44988;BME280;35735;52.226;21.254;2023-05-11T04:36:03;100886.41;;;10.22;73.07
44988;BME280;35735;52.226;21.254;2023-05-11T04:41:05;100877.75;;;10.56;72.46
44988;BME280;35735;52.226;21.254;2023-05-11T04:46:06;100878.00;;;10.98;71.05
44988;BME280;35735;52.226;21.254;2023-05-11T04:51:07;100887.16;;;11.32;70.51
44988;BME280;35735;52.226;21.254;2023-05-11T04:56:07;100888.31;;;11.93;70.51
44988;BME280;35735;52.226;21.254;2023-05-11T05:01:08;100890.16;;;12.31;68.62
44988;BME280;35735;52.226;21.254;2023-05-11T05:06:09;100896.41;;;12.89;68.13
44988;BME280;35735;52.226;21.254;2023-05-11T05:11:09;100897.22;;;13.37;65.72
44988;BME280;35735;52.226;21.254;2023-05-11T05:16:10;100894.44;;;13.54;64.16
44988;BME280;35735;52.226;21.254;2023-05-11T05:21:10;100900.66;;;13.73;63.59
44988;BME280;35735;52.226;21.254;2023-05-11T05:26:11;100890.50;;;14.07;62.45
44988;BME280;35735;52.226;21.254;2023-05-11T05:31:11;100899.53;;;14.09;60.23
44988;BME280;35735;52.226;21.254;2023-05-11T05:36:12;100898.59;;;14.18;61.00
44988;BME280;35735;52.226;21.254;2023-05-11T05:41:12;100905.66;;;14.38;60.46
44988;BME280;35735;52.226;21.254;2023-05-11T05:46:13;100898.13;;;14.77;60.11
44988;BME280;35735;52.226;21.254;2023-05-11T05:51:14;100891.53;;;14.99;58.68
44988;BME280;35735;52.226;21.254;2023-05-11T05:56:15;100897.63;;;15.20;56.60
44988;BME280;35735;52.226;21.254;2023-05-11T06:01:15;100900.34;;;15.22;55.61
44988;BME280;35735;52.226;21.254;2023-05-11T06:06:16;100911.09;;;15.35;55.83
44988;BME280;35735;52.226;21.254;2023-05-11T06:11:17;100908.69;;;15.82;55.92
44988;BME280;35735;52.226;21.254;2023-05-11T06:16:17;100905.38;;;16.24;54.14
44988;BME280;35735;52.226;21.254;2023-05-11T06:21:18;100912.31;;;16.43;53.91
44988;BME280;35735;52.226;21.254;2023-05-11T06:26:18;100909.38;;;16.56;52.11
44988;BME280;35735;52.226;21.254;2023-05-11T06:31:19;100908.06;;;16.78;52.06
44988;BME280;35735;52.226;21.254;2023-05-11T06:36:19;100916.75;;;17.02;50.23
44988;BME280;35735;52.226;21.254;2023-05-11T06:41:20;100917.66;;;17.04;49.43
44988;BME280;35735;52.226;21.254;2023-05-11T06:46:20;100913.00;;;17.09;47.72
44988;BME280;35735;52.226;21.254;2023-05-11T06:51:21;100917.47;;;17.13;47.00
44988;BME280;35735;52.226;21.254;2023-05-11T06:56:21;100926.84;;;17.45;46.71
44988;BME280;35735;52.226;21.254;2023-05-11T07:01:22;100919.75;;;17.78;45.55
44988;BME280;35735;52.226;21.254;2023-05-11T07:06:23;100915.03;;;17.88;45.26
44988;BME280;35735;52.226;21.254;2023-05-11T07:11:24;100930.66;;;17.80;44.88
44988;BME280;35735;52.226;21.254;2023-05-11T07:16:24;100926.19;;;17.76;43.66
44988;BME280;35735;52.226;21.254;2023-05-11T07:21:25;100924.03;;;17.48;41.77
44988;BME280;35735;52.226;21.254;2023-05-11T07:26:25;100911.63;;;17.32;41.62
44988;BME280;35735;52.226;21.254;2023-05-11T07:31:26;100923.88;;;17.57;41.14
44988;BME280;35735;52.226;21.254;2023-05-11T07:36:26;100915.47;;;17.67;40.79
44988;BME280;35735;52.226;21.254;2023-05-11T07:41:27;100921.59;;;17.78;39.48
44988;BME280;35735;52.226;21.254;2023-05-11T07:46:28;100918.13;;;17.70;40.57
44988;BME280;35735;52.226;21.254;2023-05-11T07:51:29;100908.75;;;17.83;39.11
44988;BME280;35735;52.226;21.254;2023-05-11T07:56:29;100910.47;;;17.89;37.20
44988;BME280;35735;52.226;21.254;2023-05-11T08:01:30;100913.03;;;17.96;36.48
44988;BME280;35735;52.226;21.254;2023-05-11T08:06:30;100912.25;;;17.90;36.84
44988;BME280;35735;52.226;21.254;2023-05-11T08:11:31;100912.56;;;18.17;37.61
44988;BME280;35735;52.226;21.254;2023-05-11T08:16:31;100904.53;;;18.48;35.12
44988;BME280;35735;52.226;21.254;2023-05-11T08:21:32;100917.16;;;18.52;32.86
44988;BME280;35735;52.226;21.254;2023-05-11T08:26:32;100909.03;;;18.49;33.00
44988;BME280;35735;52.226;21.254;2023-05-11T08:31:33;100913.78;;;18.41;33.04
44988;BME280;35735;52.226;21.254;2023-05-11T08:36:34;100906.62;;;18.37;32.74
44988;BME280;35735;52.226;21.254;2023-05-11T08:41:35;100902.25;;;18.65;34.13
44988;BME280;35735;52.226;21.254;2023-05-11T08:46:39;100897.63;;;18.67;32.58
44988;BME280;35735;52.226;21.254;2023-05-11T08:51:41;100891.63;;;18.53;32.71
44988;BME280;35735;52.226;21.254;2023-05-11T08:56:42;100895.44;;;18.82;34.35
44988;BME280;35735;52.226;21.254;2023-05-11T09:01:43;100892.00;;;19.10;33.23
44988;BME280;35735;52.226;21.254;2023-05-11T09:06:45;100897.13;;;19.22;34.38
44988;BME280;35735;52.226;21.254;2023-05-11T09:11:45;100898.66;;;19.32;34.26
44988;BME280;35735;52.226;21.254;2023-05-11T09:16:46;100909.25;;;19.44;33.39
44988;BME280;35735;52.226;21.254;2023-05-11T09:21:47;100890.59;;;19.26;33.31
44988;BME280;35735;52.226;21.254;2023-05-11T09:26:47;100889.13;;;19.46;34.11
44988;BME280;35735;52.226;21.254;2023-05-11T09:31:48;100893.12;;;19.65;33.45
44988;BME280;35735;52.226;21.254;2023-05-11T09:36:51;100881.50;;;19.57;33.61
44988;BME280;35735;52.226;21.254;2023-05-11T09:42:16;100877.37;;;19.73;34.27
44988;BME280;35735;52.226;21.254;2023-05-11T09:47:19;100882.47;;;19.54;32.24
44988;BME280;35735;52.226;21.254;2023-05-11T09:52:20;100876.19;;;19.51;34.14
44988;BME280;35735;52.226;21.254;2023-05-11T09:57:25;100867.06;;;19.52;33.56
44988;BME280;35735;52.226;21.254;2023-05-11T10:02:28;100867.84;;;19.55;34.39
44988;BME280;35735;52.226;21.254;2023-05-11T10:07:33;100874.22;;;19.56;33.37
44988;BME280;35735;52.226;21.254;2023-05-11T10:12:35;100870.19;;;19.06;32.39
44988;BME280;35735;52.226;21.254;2023-05-11T10:17:36;100855.34;;;18.81;33.58
44988;BME280;35735;52.226;21.254;2023-05-11T10:22:37;100854.22;;;18.91;33.38
44988;BME280;35735;52.226;21.254;2023-05-11T10:27:38;100846.66;;;18.99;34.88
44988;BME280;35735;52.226;21.254;2023-05-11T10:32:38;100844.06;;;19.26;35.33
44988;BME280;35735;52.226;21.254;2023-05-11T10:37:40;100841.66;;;19.47;33.59
44988;BME280;35735;52.226;21.254;2023-05-11T10:55:14;100837.84;;;19.21;35.05
44988;BME280;35735;52.226;21.254;2023-05-11T11:05:36;100827.19;;;19.12;34.37
44988;BME280;35735;52.226;21.254;2023-05-11T11:10:39;100821.88;;;19.05;35.87
44988;BME280;35735;52.226;21.254;2023-05-11T11:20:54;100815.81;;;19.25;34.77
44988;BME280;35735;52.226;21.254;2023-05-11T11:25:56;100820.19;;;19.01;35.46
44988;BME280;35735;52.226;21.254;2023-05-11T11:31:28;100821.41;;;18.91;35.74
44988;BME280;35735;52.226;21.254;2023-05-11T11:42:01;100811.69;;;19.42;34.96
44988;BME280;35735;52.226;21.254;2023-05-11T11:47:10;100817.78;;;19.52;33.73
44988;BME280;35735;52.226;21.254;2023-05-11T12:02:33;100827.66;;;19.26;33.81
44988;BME280;35735;52.226;21.254;2023-05-11T12:07:34;100824.53;;;19.09;33.18
44988;BME280;35735;52.226;21.254;2023-05-11T12:12:36;100805.47;;;19.05;33.90
44988;BME280;35735;52.226;21.254;2023-05-11T12:17:37;100815.66;;;19.00;34.92
44988;BME280;35735;52.226;21.254;2023-05-11T12:22:38;100814.69;;;19.03;35.03
44988;BME280;35735;52.226;21.254;2023-05-11T12:27:55;100806.19;;;19.12;35.62
44988;BME280;35735;52.226;21.254;2023-05-11T12:32:56;100801.00;;;19.33;35.74
44988;BME280;35735;52.226;21.254;2023-05-11T12:37:59;100807.00;;;19.46;35.91
44988;BME280;35735;52.226;21.254;2023-05-11T12:43:00;100802.59;;;19.41;34.37
44988;BME280;35735;52.226;21.254;2023-05-11T12:48:01;100787.97;;;19.41;35.30
44988;BME280;35735;52.226;21.254;2023-05-11T12:53:15;100790.59;;;19.46;35.35
44988;BME280;35735;52.226;21.254;2023-05-11T12:58:18;100780.53;;;19.16;33.99
44988;BME280;35735;52.226;21.254;2023-05-11T13:03:23;100777.34;;;19.00;35.14
44988;BME280;35735;52.226;21.254;2023-05-11T13:08:27;100776.69;;;18.92;35.11
44988;BME280;35735;52.226;21.254;2023-05-11T13:13:28;100766.91;;;18.82;35.51
44988;BME280;35735;52.226;21.254;2023-05-11T13:18:28;100767.28;;;19.01;35.84
44988;BME280;35735;52.226;21.254;2023-05-11T13:23:29;100761.44;;;19.15;35.68
44988;BME280;35735;52.226;21.254;2023-05-11T13:28:32;100747.97;;;19.07;36.25
44988;BME280;35735;52.226;21.254;2023-05-11T13:33:32;100746.31;;;19.01;35.99
44988;BME280;35735;52.226;21.254;2023-05-11T13:38:33;100750.94;;;18.99;35.91
44988;BME280;35735;52.226;21.254;2023-05-11T13:43:34;100751.81;;;19.01;35.22
44988;BME280;35735;52.226;21.254;2023-05-11T13:48:34;100752.72;;;19.00;34.96
44988;BME280;35735;52.226;21.254;2023-05-11T13:53:35;100752.06;;;18.92;35.48
44988;BME280;35735;52.226;21.254;2023-05-11T13:58:35;100754.97;;;18.86;35.62
44988;BME280;35735;52.226;21.254;2023-05-11T14:03:38;100735.94;;;18.81;36.00
44988;BME280;35735;52.226;21.254;2023-05-11T14:08:38;100746.75;;;18.86;36.18
44988;BME280;35735;52.226;21.254;2023-05-11T14:13:39;100743.22;;;18.81;36.64
44988;BME280;35735;52.226;21.254;2023-05-11T14:18:40;100744.19;;;18.80;35.78
44988;BME280;35735;52.226;21.254;2023-05-11T14:23:40;100739.66;;;18.79;35.68
44988;BME280;35735;52.226;21.254;2023-05-11T14:28:41;100747.94;;;18.76;35.79
44988;BME280;35735;52.226;21.254;2023-05-11T14:33:41;100742.75;;;18.66;35.41
44988;BME280;35735;52.226;21.254;2023-05-11T14:38:42;100740.91;;;18.67;36.34
44988;BME280;35735;52.226;21.254;2023-05-11T14:43:42;100739.41;;;18.55;36.46
44988;BME280;35735;52.226;21.254;2023-05-11T14:48:43;100723.94;;;18.54;37.01
44988;BME280;35735;52.226;21.254;2023-05-11T14:53:43;100727.72;;;18.50;36.51
44988;BME280;35735;52.226;21.254;2023-05-11T14:58:44;100727.00;;;18.43;36.94
44988;BME280;35735;52.226;21.254;2023-05-11T15:03:45;100728.78;;;18.44;37.32
44988;BME280;35735;52.226;21.254;2023-05-11T15:08:49;100721.56;;;18.42;37.80
44988;BME280;35735;52.226;21.254;2023-05-11T15:13:49;100727.88;;;18.44;38.28
44988;BME280;35735;52.226;21.254;2023-05-11T15:18:50;100722.28;;;18.48;38.04
44988;BME280;35735;52.226;21.254;2023-05-11T15:23:50;100720.47;;;18.47;38.05
44988;BME280;35735;52.226;21.254;2023-05-11T15:28:51;100723.31;;;18.44;37.87
44988;BME280;35735;52.226;21.254;2023-05-11T15:33:52;100722.59;;;18.38;37.59
44988;BME280;35735;52.226;21.254;2023-05-11T15:38:52;100722.84;;;18.28;37.53
44988;BME280;35735;52.226;21.254;2023-05-11T15:43:53;100722.91;;;18.25;37.69
44988;BME280;35735;52.226;21.254;2023-05-11T15:48:53;100722.06;;;18.23;37.90
44988;BME280;35735;52.226;21.254;2023-05-11T15:53:54;100724.66;;;18.29;38.79
44988;BME280;35735;52.226;21.254;2023-05-11T15:58:54;100738.37;;;18.26;38.53
44988;BME280;35735;52.226;21.254;2023-05-11T16:03:55;100733.16;;;18.17;39.25
44988;BME280;35735;52.226;21.254;2023-05-11T16:08:55;100730.44;;;18.15;39.28
44988;BME280;35735;52.226;21.254;2023-05-11T16:13:56;100735.87;;;18.17;40.05
44988;BME280;35735;52.226;21.254;2023-05-11T16:18:57;100735.97;;;18.14;39.75
44988;BME280;35735;52.226;21.254;2023-05-11T16:23:57;100737.84;;;18.12;40.20
44988;BME280;35735;52.226;21.254;2023-05-11T16:28:58;100739.78;;;18.07;39.33
44988;BME280;35735;52.226;21.254;2023-05-11T16:33:58;100737.12;;;18.04;39.54
44988;BME280;35735;52.226;21.254;2023-05-11T16:38:59;100730.81;;;18.02;39.33
44988;BME280;35735;52.226;21.254;2023-05-11T16:44:00;100725.50;;;17.95;38.98
44988;BME280;35735;52.226;21.254;2023-05-11T16:49:00;100725.69;;;17.89;39.71
44988;BME280;35735;52.226;21.254;2023-05-11T16:54:01;100726.62;;;17.88;40.46
44988;BME280;35735;52.226;21.254;2023-05-11T16:59:01;100724.00;;;17.82;39.97
44988;BME280;35735;52.226;21.254;2023-05-11T17:04:02;100728.72;;;17.75;39.76
44988;BME280;35735;52.226;21.254;2023-05-11T17:09:02;100729.81;;;17.68;40.47
44988;BME280;35735;52.226;21.254;2023-05-11T17:14:03;100744.50;;;17.63;40.56
44988;BME280;35735;52.226;21.254;2023-05-11T17:19:03;100739.03;;;17.64;41.21
44988;BME280;35735;52.226;21.254;2023-05-11T17:24:04;100744.47;;;17.64;41.60
44988;BME280;35735;52.226;21.254;2023-05-11T17:29:05;100742.75;;;17.60;41.98
44988;BME280;35735;52.226;21.254;2023-05-11T17:34:05;100746.50;;;17.56;42.18
44988;BME280;35735;52.226;21.254;2023-05-11T17:39:06;100749.34;;;17.50;42.82
44988;BME280;35735;52.226;21.254;2023-05-11T17:44:06;100755.94;;;17.41;43.05
44988;BME280;35735;52.226;21.254;2023-05-11T17:49:07;100750.66;;;17.32;43.62
44988;BME280;35735;52.226;21.254;2023-05-11T17:54:07;100756.25;;;17.26;43.67
44988;BME280;35735;52.226;21.254;2023-05-11T17:59:08;100757.44;;;17.14;44.07
44988;BME280;35735;52.226;21.254;2023-05-11T18:04:09;100758.53;;;17.05;44.52
44988;BME280;35735;52.226;21.254;2023-05-11T18:09:09;100764.09;;;16.99;45.06
44988;BME280;35735;52.226;21.254;2023-05-11T18:14:10;100775.31;;;16.83;45.33
44988;BME280;35735;52.226;21.254;2023-05-11T18:19:10;100773.75;;;16.70;46.11
44988;BME280;35735;52.226;21.254;2023-05-11T18:24:11;100775.72;;;16.62;46.83
44988;BME280;35735;52.226;21.254;2023-05-11T18:29:11;100784.16;;;16.49;48.30
44988;BME280;35735;52.226;21.254;2023-05-11T18:34:12;100788.09;;;16.32;50.27
44988;BME280;35735;52.226;21.254;2023-05-11T18:39:13;100794.94;;;16.04;51.18
44988;BME280;35735;52.226;21.254;2023-05-11T18:44:13;100802.63;;;15.74;51.04
44988;BME280;35735;52.226;21.254;2023-05-11T18:49:14;100810.03;;;15.63;51.13
44988;BME280;35735;52.226;21.254;2023-05-11T18:54:14;100807.59;;;15.45;51.61
44988;BME280;35735;52.226;21.254;2023-05-11T18:59:15;100803.22;;;15.31;52.20
44988;BME280;35735;52.226;21.254;2023-05-11T19:04:15;100815.25;;;15.13;53.17
44988;BME280;35735;52.226;21.254;2023-05-11T19:09:16;100811.84;;;14.96;54.51
44988;BME280;35735;52.226;21.254;2023-05-11T19:14:16;100818.38;;;14.78;55.81
44988;BME280;35735;52.226;21.254;2023-05-11T19:19:17;100818.56;;;14.62;56.79
44988;BME280;35735;52.226;21.254;2023-05-11T19:24:17;100833.13;;;14.49;57.23
44988;BME280;35735;52.226;21.254;2023-05-11T19:29:18;100836.87;;;14.36;57.22
44988;BME280;35735;52.226;21.254;2023-05-11T19:34:19;100830.63;;;14.24;58.31
44988;BME280;35735;52.226;21.254;2023-05-11T19:39:20;100836.19;;;14.09;58.23
44988;BME280;35735;52.226;21.254;2023-05-11T19:44:20;100839.91;;;13.99;58.90
44988;BME280;35735;52.226;21.254;2023-05-11T19:49:21;100846.31;;;13.88;60.25
44988;BME280;35735;52.226;21.254;2023-05-11T19:54:21;100850.00;;;13.77;60.00
44988;BME280;35735;52.226;21.254;2023-05-11T19:59:22;100850.06;;;13.66;60.69
44988;BME280;35735;52.226;21.254;2023-05-11T20:04:22;100851.03;;;13.54;60.61
44988;BME280;35735;52.226;21.254;2023-05-11T20:09:23;100857.44;;;13.39;60.87
44988;BME280;35735;52.226;21.254;2023-05-11T20:14:24;100854.75;;;13.33;61.08
44988;BME280;35735;52.226;21.254;2023-05-11T20:19:24;100853.87;;;13.25;61.67
44988;BME280;35735;52.226;21.254;2023-05-11T20:24:25;100861.13;;;13.18;62.56
44988;BME280;35735;52.226;21.254;2023-05-11T20:29:25;100861.13;;;13.16;62.94
44988;BME280;35735;52.226;21.254;2023-05-11T20:34:26;100860.25;;;13.07;62.75
44988;BME280;35735;52.226;21.254;2023-05-11T20:39:27;100863.00;;;12.91;62.70
44988;BME280;35735;52.226;21.254;2023-05-11T20:44:27;100867.50;;;12.88;63.15
44988;BME280;35735;52.226;21.254;2023-05-11T20:49:29;100864.84;;;12.82;63.41
44988;BME280;35735;52.226;21.254;2023-05-11T20:54:29;100876.56;;;12.79;63.79
44988;BME280;35735;52.226;21.254;2023-05-11T20:59:30;100869.38;;;12.70;64.09
44988;BME280;35735;52.226;21.254;2023-05-11T21:04:31;100871.19;;;12.65;64.29
44988;BME280;35735;52.226;21.254;2023-05-11T21:09:33;100862.16;;;12.60;64.57
44988;BME280;35735;52.226;21.254;2023-05-11T21:14:33;100881.13;;;12.54;64.77
44988;BME280;35735;52.226;21.254;2023-05-11T21:19:34;100873.00;;;12.51;64.96
44988;BME280;35735;52.226;21.254;2023-05-11T21:24:35;100885.66;;;12.36;65.29
44988;BME280;35735;52.226;21.254;2023-05-11T21:29:35;100888.34;;;12.27;65.66
44988;BME280;35735;52.226;21.254;2023-05-11T21:34:36;100898.25;;;12.23;65.74
44988;BME280;35735;52.226;21.254;2023-05-11T21:39:36;100905.47;;;12.28;65.95
44988;BME280;35735;52.226;21.254;2023-05-11T21:44:37;100899.19;;;12.18;66.07
44988;BME280;35735;52.226;21.254;2023-05-11T21:49:37;100908.16;;;12.11;66.40
44988;BME280;35735;52.226;21.254;2023-05-11T21:54:38;100903.66;;;12.02;66.63
44988;BME280;35735;52.226;21.254;2023-05-11T21:59:39;100909.03;;;11.94;66.91
44988;BME280;35735;52.226;21.254;2023-05-11T22:04:39;100917.16;;;11.94;67.20
44988;BME280;35735;52.226;21.254;2023-05-11T22:09:40;100917.16;;;11.91;67.34
44988;BME280;35735;52.226;21.254;2023-05-11T22:14:40;100918.91;;;11.81;67.65
44988;BME280;35735;52.226;21.254;2023-05-11T22:19:41;100921.56;;;11.71;68.08
44988;BME280;35735;52.226;21.254;2023-05-11T22:24:41;100929.66;;;11.61;68.38
44988;BME280;35735;52.226;21.254;2023-05-11T22:29:42;100933.22;;;11.54;68.79
44988;BME280;35735;52.226;21.254;2023-05-11T22:34:42;100931.38;;;11.44;69.20
44988;BME280;35735;52.226;21.254;2023-05-11T22:39:43;100934.94;;;11.35;69.53
44988;BME280;35735;52.226;21.254;2023-05-11T22:44:43;100939.38;;;11.25;69.93
44988;BME280;35735;52.226;21.254;2023-05-11T22:49:44;100943.88;;;11.20;70.08
44988;BME280;35735;52.226;21.254;2023-05-11T22:54:44;100936.66;;;11.16;70.29
44988;BME280;35735;52.226;21.254;2023-05-11T22:59:45;100933.03;;;11.11;70.60
44988;BME280;35735;52.226;21.254;2023-05-11T23:04:50;100945.63;;;11.12;70.59
44988;BME280;35735;52.226;21.254;2023-05-11T23:09:50;100938.34;;;11.02;70.84
44988;BME280;35735;52.226;21.254;2023-05-11T23:14:51;100939.16;;;10.87;71.21
44988;BME280;35735;52.226;21.254;2023-05-11T23:19:52;100938.19;;;10.80;71.40
44988;BME280;35735;52.226;21.254;2023-05-11T23:24:54;100944.50;;;10.76;71.55
44988;BME280;35735;52.226;21.254;2023-05-11T23:29:55;100941.72;;;10.70;71.60
44988;BME280;35735;52.226;21.254;2023-05-11T23:34:55;100944.38;;;10.64;71.81
44988;BME280;35735;52.226;21.254;2023-05-11T23:39:56;100944.31;;;10.59;71.96
44988;BME280;35735;52.226;21.254;2023-05-11T23:44:56;100941.63;;;10.56;72.01
44988;BME280;35735;52.226;21.254;2023-05-11T23:49:57;100939.78;;;10.53;71.99
44988;BME280;35735;52.226;21.254;2023-05-11T23:54:58;100944.28;;;10.50;72.09
44988;BME280;35735;52.226;21.254;2023-05-11T23:59:58;100935.28;;;10.49;72.02
